createdAt,value
2022-11-04T00:07:14.878Z,4.026
2022-11-04T00:27:57.658Z,4.026
2022-11-04T00:33:11.214Z,4.026
2022-11-04T00:43:33.103Z,4.026
2022-11-04T01:04:16.053Z,4.026
2022-11-04T01:30:09.272Z,4.0211
2022-11-04T04:10:26.862Z,4.0162
2022-11-04T05:02:11.397Z,4.0114
2022-11-04T05:43:32.907Z,4.0114
2022-11-04T05:48:44.950Z,4.0162
2022-11-04T06:04:20.464Z,4.0162
2022-11-04T06:09:32.483Z,4.0114
2022-11-04T06:14:44.800Z,4.0114
2022-11-04T06:19:57.447Z,4.0114
2022-11-04T06:25:09.041Z,4.0162
2022-11-04T06:30:21.044Z,4.0114
2022-11-04T06:35:32.524Z,4.0162
2022-11-04T06:40:44.371Z,4.0114
2022-11-04T06:45:56.799Z,4.0114
2022-11-04T06:56:20.520Z,4.0114
2022-11-04T07:01:33.398Z,4.0114
2022-11-04T07:06:45.930Z,4.0114
2022-11-04T07:11:58.211Z,4.0211
2022-11-04T07:17:10.650Z,4.0114
2022-11-04T07:22:22.692Z,4.0065
2022-11-04T07:27:34.799Z,4.0114
2022-11-04T07:32:46.996Z,4.0114
2022-11-04T07:43:11.201Z,4.0114
2022-11-04T07:48:23.386Z,4.0114
2022-11-04T07:53:35.472Z,4.0114
2022-11-04T07:58:47.661Z,4.0114
2022-11-04T08:09:12.242Z,4.0162
2022-11-04T08:14:24.358Z,4.0114
2022-11-04T08:19:36.511Z,4.0114
2022-11-04T08:24:48.421Z,4.0114
2022-11-04T08:35:12.584Z,4.0162
2022-11-04T08:40:24.831Z,4.0114
2022-11-04T08:45:40.549Z,4.0114
2022-11-04T08:50:51.863Z,4.0114
2022-11-04T09:01:16.229Z,4.0162
2022-11-04T09:06:28.659Z,4.0162
2022-11-04T09:11:40.749Z,4.0162
2022-11-04T09:16:52.964Z,4.0114
2022-11-04T09:27:17.858Z,4.0114
2022-11-04T09:32:29.971Z,4.0114
2022-11-04T09:37:43.089Z,4.0162
2022-11-04T09:42:55.250Z,4.0162
2022-11-04T09:53:20.242Z,4.0162
2022-11-04T09:58:32.257Z,4.0162
2022-11-04T10:03:44.546Z,4.0162
2022-11-04T10:08:58.106Z,4.0211
2022-11-04T10:19:21.677Z,4.0211
2022-11-04T10:24:34.266Z,4.0162
2022-11-04T10:29:46.173Z,4.0162
2022-11-04T10:34:58.512Z,4.0162
2022-11-04T10:40:11.232Z,4.0162
2022-11-04T10:45:30.828Z,4.0162
2022-11-04T10:50:47.806Z,4.0211
2022-11-04T11:01:16.355Z,4.0211
2022-11-04T11:06:31.160Z,4.0309
2022-11-04T11:11:44.917Z,4.065
2022-11-04T11:27:19.202Z,4.0992
2022-11-04T11:32:32.125Z,4.109
2022-11-04T11:37:45.433Z,4.1236
2022-11-04T11:48:09.512Z,4.1334
2022-11-04T11:53:22.460Z,4.1236
2022-11-04T12:06:20.946Z,4.1285
2022-11-04T12:27:02.116Z,4.1431
2022-11-04T12:47:48.781Z,4.1285
2022-11-04T13:24:03.580Z,4.1822
2022-11-04T13:29:16.535Z,4.1431
2022-11-04T13:39:51.643Z,4.1334
2022-11-04T13:50:15.022Z,4.1919
2022-11-04T14:05:46.507Z,4.1773
2022-11-04T14:10:58.407Z,4.1626
2022-11-04T14:16:10.432Z,4.1578
2022-11-04T14:21:22.408Z,4.1578
2022-11-04T14:31:47.062Z,4.1578
2022-11-04T14:36:59.042Z,4.1578
2022-11-04T14:42:11.160Z,4.148
2022-11-04T14:47:22.966Z,4.1431
2022-11-04T14:57:46.818Z,4.1382
2022-11-04T15:02:58.729Z,4.1382
2022-11-04T15:08:10.856Z,4.1382
2022-11-04T15:13:22.991Z,4.1382
2022-11-04T15:23:47.554Z,4.1334
2022-11-04T15:28:59.340Z,4.1285
2022-11-04T15:34:15.457Z,4.1236
2022-11-04T15:39:30.264Z,4.1236
2022-11-04T15:49:53.806Z,4.1187
2022-11-04T15:55:06.246Z,4.1138
2022-11-04T16:00:17.772Z,4.1138
2022-11-04T16:05:29.529Z,4.1138
2022-11-04T16:15:54.119Z,4.109
2022-11-04T16:21:05.860Z,4.1138
2022-11-04T16:26:18.182Z,4.1041
2022-11-04T16:31:29.796Z,4.1041
2022-11-04T16:41:53.951Z,4.0992
2022-11-04T16:47:05.671Z,4.0992
2022-11-04T16:52:17.601Z,4.0894
2022-11-04T16:57:29.464Z,4.0894
2022-11-04T17:08:06.816Z,4.0894
2022-11-04T17:13:15.844Z,4.0894
2022-11-04T17:18:27.433Z,4.0846
2022-11-04T17:28:51.068Z,4.0846
2022-11-04T17:34:02.880Z,4.0846
2022-11-04T17:39:14.804Z,4.0846
2022-11-04T17:44:26.835Z,4.0797
2022-11-04T17:54:50.332Z,4.0797
2022-11-04T18:00:02.389Z,4.0797
2022-11-04T18:05:13.872Z,4.0846
2022-11-04T18:10:25.797Z,4.0797
2022-11-04T18:20:49.453Z,4.0748
2022-11-04T18:26:01.176Z,4.0699
2022-11-04T18:31:13.253Z,4.0699
2022-11-04T18:36:25.119Z,4.0699
2022-11-04T18:46:48.814Z,4.0699
2022-11-04T18:52:00.326Z,4.0797
2022-11-04T18:57:12.146Z,4.0699
2022-11-04T19:02:25.783Z,4.0748
2022-11-04T19:12:49.134Z,4.0699
2022-11-04T19:18:01.318Z,4.065
2022-11-04T19:23:12.972Z,4.065
2022-11-04T19:28:51.530Z,4.065
2022-11-04T19:33:59.594Z,4.0602
2022-11-04T19:39:11.841Z,4.0699
2022-11-04T19:44:23.482Z,4.0602
2022-11-04T19:54:47.388Z,4.0602
2022-11-04T19:59:59.308Z,4.0602
2022-11-04T20:05:11.409Z,4.0602
2022-11-04T20:10:23.370Z,4.0602
2022-11-04T20:20:47.696Z,4.0602
2022-11-04T20:25:59.550Z,4.0553
2022-11-04T20:31:15.020Z,4.0553
2022-11-04T20:36:28.885Z,4.0553
2022-11-04T20:46:53.190Z,4.0504
2022-11-04T20:52:05.193Z,4.0504
2022-11-04T20:57:17.130Z,4.0504
2022-11-04T21:02:30.469Z,4.0504
2022-11-04T21:12:54.180Z,4.0504
2022-11-04T21:18:06.686Z,4.0602
2022-11-04T21:23:19.415Z,4.0553
2022-11-04T21:28:31.891Z,4.0602
2022-11-04T21:33:43.851Z,4.0553
2022-11-04T21:38:56.136Z,4.0504
2022-11-04T21:44:07.722Z,4.0504
2022-11-04T21:49:19.821Z,4.0504
2022-11-04T21:54:31.854Z,4.0504
2022-11-04T21:59:43.730Z,4.0455
2022-11-04T22:04:55.680Z,4.0504
2022-11-04T22:10:08.537Z,4.0553
2022-11-04T22:15:20.296Z,4.0504
2022-11-04T22:20:32.336Z,4.0455
2022-11-04T22:31:02.867Z,4.0455
2022-11-04T22:36:15.374Z,4.0455
2022-11-04T22:41:28.143Z,4.0504
2022-11-04T22:51:53.197Z,4.0504
2022-11-04T22:57:06.049Z,4.0504
2022-11-04T23:02:19.658Z,4.0504
2022-11-04T23:07:31.728Z,4.0504
2022-11-04T23:12:44.432Z,4.0504
2022-11-04T23:17:56.349Z,4.0504
2022-11-04T23:23:10.645Z,4.0406
2022-11-04T23:33:33.138Z,4.0504
2022-11-04T23:38:51.210Z,4.0504
2022-11-04T23:44:03.871Z,4.0406
2022-11-04T23:54:26.963Z,4.0455
